createdAt,value
2023-05-03T08:07:12.832Z,-2.09
2023-05-03T08:12:16.584Z,-2.90
2023-05-03T08:17:20.917Z,-3.31
2023-05-03T08:22:28.379Z,-4.43
2023-05-03T08:27:31.780Z,-4.65
2023-05-03T08:32:35.536Z,-4.22
2023-05-03T08:37:41.403Z,-3.81
2023-05-03T08:42:45.893Z,-3.72
2023-05-03T08:47:55.176Z,-3.96
2023-05-03T08:53:00.475Z,-4.47
2023-05-03T08:58:04.744Z,-3.74
2023-05-03T09:03:08.506Z,-3.20
2023-05-03T09:08:15.377Z,-3.02
2023-05-03T09:13:20.063Z,-2.90
2023-05-03T09:18:24.057Z,-2.94
2023-05-03T09:23:32.731Z,-3.52
2023-05-03T09:28:42.025Z,-3.47
2023-05-03T09:33:45.991Z,-3.78
2023-05-03T09:38:51.481Z,-3.89
2023-05-03T09:44:02.924Z,-4.24
2023-05-03T09:49:06.868Z,-4.09
2023-05-03T09:54:13.300Z,-4.20
2023-05-03T09:59:16.980Z,-3.89
2023-05-03T10:04:22.099Z,-4.06
2023-05-03T10:09:32.806Z,-3.08
2023-05-03T10:14:39.329Z,-2.48
2023-05-03T10:19:51.745Z,-2.08
2023-05-03T10:25:10.879Z,-2.13
2023-05-03T10:30:29.170Z,-1.97
2023-05-03T10:35:32.941Z,-3.15
2023-05-03T10:40:44.703Z,-3.10
2023-05-03T10:45:49.684Z,-2.69
2023-05-03T10:50:53.297Z,-2.56
2023-05-03T10:56:06.107Z,-2.63
2023-05-03T11:01:11.134Z,-3.34
2023-05-03T11:06:31.519Z,-2.63
2023-05-03T11:11:39.121Z,-2.76
2023-05-03T11:16:48.218Z,-2.36
2023-05-03T11:21:53.787Z,-2.19
2023-05-03T11:27:00.161Z,-2.30
2023-05-03T11:32:12.576Z,-1.78
2023-05-03T11:37:17.499Z,-0.80
2023-05-03T11:42:24.752Z,-0.02
2023-05-03T11:47:30.783Z,-0.40
2023-05-03T11:52:37.731Z,-0.21
2023-05-03T11:57:43.710Z,0.29
2023-05-03T12:02:49.092Z,0.61
2023-05-03T12:13:05.126Z,-0.59
2023-05-03T12:18:10.978Z,-1.74
2023-05-03T12:23:16.120Z,-1.60
2023-05-03T12:28:22.687Z,-1.31
2023-05-03T12:33:28.532Z,-1.17
2023-05-03T12:38:35.893Z,-1.57
2023-05-03T12:43:43.655Z,-1.50
2023-05-03T12:48:52.255Z,-1.12
2023-05-03T12:54:01.620Z,-1.91
2023-05-03T12:59:39.227Z,-1.53
2023-05-03T13:10:12.047Z,-1.25
2023-05-03T13:15:03.608Z,-0.75
2023-05-03T13:20:08.481Z,-0.49
2023-05-03T13:25:14.298Z,-0.40
2023-05-03T13:30:23.620Z,-0.40
2023-05-03T13:35:26.876Z,-0.78
2023-05-03T13:40:30.188Z,-1.63
2023-05-03T13:45:35.023Z,-1.76
2023-05-03T13:50:40.467Z,-1.53
2023-05-03T13:55:43.764Z,-1.70
2023-05-03T14:00:48.433Z,-1.28
2023-05-03T14:05:51.766Z,-0.87
2023-05-03T14:10:55.050Z,-0.81
2023-05-03T14:16:02.141Z,-0.78
2023-05-03T14:21:05.728Z,-0.77
2023-05-03T14:26:09.320Z,-0.89
2023-05-03T14:31:14.282Z,-0.87
2023-05-03T14:36:17.723Z,-0.90
2023-05-03T14:41:21.727Z,-1.11
2023-05-03T14:46:26.676Z,-1.07
2023-05-03T14:51:30.050Z,-1.04
2023-05-03T14:56:33.932Z,-1.15
2023-05-03T15:01:39.173Z,-1.04
2023-05-03T15:06:43.008Z,-0.93
2023-05-03T15:11:46.625Z,-0.79
2023-05-03T15:16:53.843Z,-0.98
2023-05-03T15:21:57.437Z,-1.06
2023-05-03T15:27:02.859Z,-0.95
2023-05-03T15:32:08.092Z,-1.00
2023-05-03T15:37:13.157Z,-1.06
2023-05-03T15:42:16.568Z,-1.00
2023-05-03T15:47:22.539Z,-0.79
2023-05-03T15:52:26.121Z,-0.84
2023-05-03T15:57:30.388Z,-1.24
2023-05-03T16:02:35.631Z,-1.39
2023-05-03T16:07:40.456Z,-1.36
2023-05-03T16:12:44.208Z,-1.20
2023-05-03T16:17:49.469Z,-1.48
2023-05-03T16:28:44.016Z,-1.67
2023-05-03T16:33:49.304Z,-1.69
2023-05-03T16:38:52.707Z,-1.76
2023-05-03T16:43:56.063Z,-1.69
2023-05-03T16:49:01.769Z,-1.66
2023-05-03T16:54:05.654Z,-1.62
2023-05-03T16:59:09.423Z,-1.80
2023-05-03T17:04:16.870Z,-1.94
2023-05-03T17:09:22.490Z,-2.07
2023-05-03T17:14:26.486Z,-2.19
2023-05-03T17:19:33.139Z,-2.21
2023-05-03T17:24:36.601Z,-2.27
2023-05-03T17:29:42.951Z,-2.30
2023-05-03T17:34:47.598Z,-2.52
2023-05-03T17:39:52.073Z,-2.66
2023-05-03T17:44:55.417Z,-2.72
2023-05-03T17:50:00.413Z,-2.82
2023-05-03T17:55:04.402Z,-2.91
2023-05-03T18:00:11.121Z,-3.11
2023-05-03T18:05:18.069Z,-3.20
2023-05-03T18:10:24.327Z,-3.51
2023-05-03T18:15:27.593Z,-3.63
2023-05-03T18:20:34.633Z,-3.75
2023-05-03T18:25:37.993Z,-3.83
2023-05-03T18:30:41.347Z,-4.00
2023-05-03T18:35:47.873Z,-4.20
2023-05-03T18:40:51.579Z,-4.36
2023-05-03T18:45:54.873Z,-4.56
2023-05-03T18:51:02.223Z,-4.74
2023-05-03T18:56:05.892Z,-4.94
2023-05-03T19:01:09.245Z,-5.14
2023-05-03T19:06:14.483Z,-5.31
2023-05-03T19:11:18.156Z,-5.50
2023-05-03T19:16:21.483Z,-5.58
2023-05-03T19:21:26.985Z,-5.72
2023-05-03T19:26:30.494Z,-5.89
2023-05-03T19:31:33.963Z,-6.05
2023-05-03T19:36:39.693Z,-6.17
2023-05-03T19:41:43.093Z,-6.23
2023-05-03T19:46:46.592Z,-6.32
2023-05-03T19:51:53.823Z,-6.40
2023-05-03T19:56:57.789Z,-6.49
2023-05-03T20:02:02.169Z,-6.62
2023-05-03T20:07:07.148Z,-6.83
2023-05-03T20:12:10.928Z,-6.94
2023-05-03T20:17:14.591Z,-6.95
2023-05-03T20:22:19.522Z,-6.99
2023-05-03T20:27:25.871Z,-7.06
2023-05-03T20:32:31.633Z,-7.18
2023-05-03T20:37:38.417Z,-7.30
2023-05-03T20:42:42.196Z,-7.51
2023-05-03T20:47:45.516Z,-7.66
2023-05-03T20:52:50.450Z,-7.72
2023-05-03T20:57:56.410Z,-7.93
2023-05-03T21:03:00.119Z,-8.10
2023-05-03T21:08:05.641Z,-8.18
2023-05-03T21:13:09.012Z,-8.34
2023-05-03T21:18:12.457Z,-8.46
2023-05-03T21:23:17.271Z,-8.61
2023-05-03T21:28:23.052Z,-8.75
2023-05-03T21:33:30.843Z,-8.77
2023-05-03T21:38:36.023Z,-8.84
2023-05-03T21:43:41.646Z,-8.85
